sensor_id;sensor_type;location;lat;lon;timestamp;P1;durP1;ratioP1;P2;durP2;ratioP2
27576;SDS011;15011;53.380;10.034;2023-03-01T00:02:13;12.05;;;6.63;;
27576;SDS011;15011;53.380;10.034;2023-03-01T00:07:13;15.82;;;6.88;;
27576;SDS011;15011;53.380;10.034;2023-03-01T00:12:14;12.55;;;6.97;;
27576;SDS011;15011;53.380;10.034;2023-03-01T00:17:14;12.20;;;7.32;;
27576;SDS011;15011;53.380;10.034;2023-03-01T00:22:15;14.75;;;7.88;;
27576;SDS011;15011;53.380;10.034;2023-03-01T00:27:15;11.43;;;7.35;;
27576;SDS011;15011;53.380;10.034;2023-03-01T00:32:15;15.25;;;7.20;;
27576;SDS011;15011;53.380;10.034;2023-03-01T00:37:16;12.43;;;6.70;;
27576;SDS011;15011;53.380;10.034;2023-03-01T00:42:16;11.60;;;7.00;;
27576;SDS011;15011;53.380;10.034;2023-03-01T00:47:17;11.95;;;6.93;;
27576;SDS011;15011;53.380;10.034;2023-03-01T00:52:17;17.83;;;7.07;;
27576;SDS011;15011;53.380;10.034;2023-03-01T00:57:18;11.68;;;6.13;;
27576;SDS011;15011;53.380;10.034;2023-03-01T01:02:19;9.85;;;5.60;;
27576;SDS011;15011;53.380;10.034;2023-03-01T01:07:20;8.87;;;5.77;;
27576;SDS011;15011;53.380;10.034;2023-03-01T01:12:20;10.38;;;5.80;;
27576;SDS011;15011;53.380;10.034;2023-03-01T01:17:20;10.05;;;5.35;;
27576;SDS011;15011;53.380;10.034;2023-03-01T01:22:22;9.67;;;5.47;;
27576;SDS011;15011;53.380;10.034;2023-03-01T01:27:22;7.88;;;5.15;;
27576;SDS011;15011;53.380;10.034;2023-03-01T01:32:23;9.55;;;4.85;;
27576;SDS011;15011;53.380;10.034;2023-03-01T01:37:23;9.50;;;5.68;;
27576;SDS011;15011;53.380;10.034;2023-03-01T01:42:31;11.55;;;5.72;;
27576;SDS011;15011;53.380;10.034;2023-03-01T01:47:31;8.27;;;5.97;;
27576;SDS011;15011;53.380;10.034;2023-03-01T01:52:34;10.13;;;5.55;;
27576;SDS011;15011;53.380;10.034;2023-03-01T01:57:40;8.75;;;5.90;;
27576;SDS011;15011;53.380;10.034;2023-03-01T02:02:43;11.63;;;6.35;;
27576;SDS011;15011;53.380;10.034;2023-03-01T02:07:45;10.98;;;6.35;;
27576;SDS011;15011;53.380;10.034;2023-03-01T02:12:46;8.35;;;5.55;;
27576;SDS011;15011;53.380;10.034;2023-03-01T02:17:46;9.80;;;5.55;;
27576;SDS011;15011;53.380;10.034;2023-03-01T02:22:48;8.87;;;5.20;;
27576;SDS011;15011;53.380;10.034;2023-03-01T02:32:55;8.73;;;5.43;;
27576;SDS011;15011;53.380;10.034;2023-03-01T02:38:06;9.38;;;5.13;;
27576;SDS011;15011;53.380;10.034;2023-03-01T02:43:08;7.47;;;4.45;;
27576;SDS011;15011;53.380;10.034;2023-03-01T02:48:09;8.38;;;4.45;;
27576;SDS011;15011;53.380;10.034;2023-03-01T02:58:41;7.68;;;4.20;;
27576;SDS011;15011;53.380;10.034;2023-03-01T03:03:45;5.38;;;3.60;;
27576;SDS011;15011;53.380;10.034;2023-03-01T03:08:46;8.63;;;4.03;;
27576;SDS011;15011;53.380;10.034;2023-03-01T03:13:46;8.57;;;4.22;;
27576;SDS011;15011;53.380;10.034;2023-03-01T03:18:48;6.68;;;3.95;;
27576;SDS011;15011;53.380;10.034;2023-03-01T03:23:48;9.95;;;3.80;;
27576;SDS011;15011;53.380;10.034;2023-03-01T03:28:48;6.75;;;3.75;;
27576;SDS011;15011;53.380;10.034;2023-03-01T03:33:49;7.28;;;3.92;;
27576;SDS011;15011;53.380;10.034;2023-03-01T03:38:49;5.70;;;3.65;;
27576;SDS011;15011;53.380;10.034;2023-03-01T03:43:50;5.95;;;3.53;;
27576;SDS011;15011;53.380;10.034;2023-03-01T03:48:51;4.97;;;3.40;;
27576;SDS011;15011;53.380;10.034;2023-03-01T03:53:51;7.28;;;3.63;;
27576;SDS011;15011;53.380;10.034;2023-03-01T03:58:52;7.20;;;3.47;;
27576;SDS011;15011;53.380;10.034;2023-03-01T04:03:53;4.53;;;3.00;;
27576;SDS011;15011;53.380;10.034;2023-03-01T04:08:54;5.20;;;2.50;;
27576;SDS011;15011;53.380;10.034;2023-03-01T04:13:58;6.90;;;3.22;;
27576;SDS011;15011;53.380;10.034;2023-03-01T04:18:59;6.18;;;3.08;;
27576;SDS011;15011;53.380;10.034;2023-03-01T04:24:00;5.32;;;3.25;;
27576;SDS011;15011;53.380;10.034;2023-03-01T04:29:03;6.55;;;3.30;;
27576;SDS011;15011;53.380;10.034;2023-03-01T04:34:04;4.72;;;2.90;;
27576;SDS011;15011;53.380;10.034;2023-03-01T04:39:04;5.30;;;2.95;;
27576;SDS011;15011;53.380;10.034;2023-03-01T04:44:12;5.10;;;3.33;;
27576;SDS011;15011;53.380;10.034;2023-03-01T04:49:12;3.67;;;2.65;;
27576;SDS011;15011;53.380;10.034;2023-03-01T04:54:13;5.10;;;2.83;;
27576;SDS011;15011;53.380;10.034;2023-03-01T04:59:13;7.22;;;3.40;;
27576;SDS011;15011;53.380;10.034;2023-03-01T05:04:14;6.22;;;3.33;;
27576;SDS011;15011;53.380;10.034;2023-03-01T05:09:14;7.28;;;3.58;;
27576;SDS011;15011;53.380;10.034;2023-03-01T05:14:15;7.40;;;3.42;;
27576;SDS011;15011;53.380;10.034;2023-03-01T05:19:15;6.18;;;3.25;;
27576;SDS011;15011;53.380;10.034;2023-03-01T05:24:16;7.55;;;3.47;;
27576;SDS011;15011;53.380;10.034;2023-03-01T05:29:17;6.28;;;3.20;;
27576;SDS011;15011;53.380;10.034;2023-03-01T05:34:25;6.07;;;2.78;;
27576;SDS011;15011;53.380;10.034;2023-03-01T05:39:28;5.93;;;3.03;;
27576;SDS011;15011;53.380;10.034;2023-03-01T05:49:29;6.55;;;3.35;;
27576;SDS011;15011;53.380;10.034;2023-03-01T05:54:30;8.02;;;3.80;;
27576;SDS011;15011;53.380;10.034;2023-03-01T05:59:30;9.40;;;3.75;;
27576;SDS011;15011;53.380;10.034;2023-03-01T06:04:31;8.73;;;3.33;;
27576;SDS011;15011;53.380;10.034;2023-03-01T06:09:31;14.40;;;6.70;;
27576;SDS011;15011;53.380;10.034;2023-03-01T06:14:32;10.85;;;5.43;;
27576;SDS011;15011;53.380;10.034;2023-03-01T06:19:32;7.28;;;4.72;;
27576;SDS011;15011;53.380;10.034;2023-03-01T06:24:33;6.38;;;4.20;;
27576;SDS011;15011;53.380;10.034;2023-03-01T06:29:33;5.60;;;3.58;;
27576;SDS011;15011;53.380;10.034;2023-03-01T06:34:34;5.20;;;3.08;;
27576;SDS011;15011;53.380;10.034;2023-03-01T06:39:34;7.68;;;3.10;;
27576;SDS011;15011;53.380;10.034;2023-03-01T06:44:35;7.55;;;3.15;;
27576;SDS011;15011;53.380;10.034;2023-03-01T06:49:36;4.65;;;2.90;;
27576;SDS011;15011;53.380;10.034;2023-03-01T06:54:37;7.70;;;3.33;;
27576;SDS011;15011;53.380;10.034;2023-03-01T06:59:37;9.73;;;3.60;;
27576;SDS011;15011;53.380;10.034;2023-03-01T07:04:38;9.00;;;4.88;;
27576;SDS011;15011;53.380;10.034;2023-03-01T07:09:38;5.07;;;3.33;;
27576;SDS011;15011;53.380;10.034;2023-03-01T07:14:39;6.75;;;3.67;;
27576;SDS011;15011;53.380;10.034;2023-03-01T07:19:39;5.05;;;2.97;;
27576;SDS011;15011;53.380;10.034;2023-03-01T07:24:40;4.47;;;2.90;;
27576;SDS011;15011;53.380;10.034;2023-03-01T07:29:41;16.90;;;3.73;;
27576;SDS011;15011;53.380;10.034;2023-03-01T07:34:42;19.73;;;5.75;;
27576;SDS011;15011;53.380;10.034;2023-03-01T07:39:42;10.13;;;5.15;;
27576;SDS011;15011;53.380;10.034;2023-03-01T07:44:42;12.85;;;4.25;;
27576;SDS011;15011;53.380;10.034;2023-03-01T07:49:43;14.75;;;4.40;;
27576;SDS011;15011;53.380;10.034;2023-03-01T07:54:43;14.18;;;5.28;;
27576;SDS011;15011;53.380;10.034;2023-03-01T07:59:44;22.25;;;6.82;;
27576;SDS011;15011;53.380;10.034;2023-03-01T08:04:45;30.60;;;5.25;;
27576;SDS011;15011;53.380;10.034;2023-03-01T08:09:45;22.80;;;7.32;;
27576;SDS011;15011;53.380;10.034;2023-03-01T08:14:46;12.23;;;4.38;;
27576;SDS011;15011;53.380;10.034;2023-03-01T08:19:46;10.27;;;4.30;;
27576;SDS011;15011;53.380;10.034;2023-03-01T08:24:47;14.48;;;4.20;;
27576;SDS011;15011;53.380;10.034;2023-03-01T08:29:47;8.45;;;3.88;;
27576;SDS011;15011;53.380;10.034;2023-03-01T08:34:48;8.60;;;5.10;;
27576;SDS011;15011;53.380;10.034;2023-03-01T08:39:48;8.23;;;4.68;;
27576;SDS011;15011;53.380;10.034;2023-03-01T08:44:49;10.27;;;4.45;;
27576;SDS011;15011;53.380;10.034;2023-03-01T08:49:50;9.85;;;5.03;;
27576;SDS011;15011;53.380;10.034;2023-03-01T08:54:50;13.93;;;5.75;;
27576;SDS011;15011;53.380;10.034;2023-03-01T08:59:51;16.73;;;5.32;;
27576;SDS011;15011;53.380;10.034;2023-03-01T09:04:51;8.50;;;5.30;;
27576;SDS011;15011;53.380;10.034;2023-03-01T09:09:52;7.47;;;4.38;;
27576;SDS011;15011;53.380;10.034;2023-03-01T09:14:53;9.23;;;5.10;;
27576;SDS011;15011;53.380;10.034;2023-03-01T09:19:53;10.45;;;4.82;;
27576;SDS011;15011;53.380;10.034;2023-03-01T09:24:54;12.07;;;4.85;;
27576;SDS011;15011;53.380;10.034;2023-03-01T09:29:56;8.48;;;5.18;;
27576;SDS011;15011;53.380;10.034;2023-03-01T09:34:57;11.13;;;5.43;;
27576;SDS011;15011;53.380;10.034;2023-03-01T09:40:06;10.70;;;5.55;;
27576;SDS011;15011;53.380;10.034;2023-03-01T09:45:21;12.60;;;5.50;;
27576;SDS011;15011;53.380;10.034;2023-03-01T09:50:28;12.93;;;5.85;;
27576;SDS011;15011;53.380;10.034;2023-03-01T09:55:38;9.55;;;5.35;;
27576;SDS011;15011;53.380;10.034;2023-03-01T10:00:47;9.85;;;6.05;;
27576;SDS011;15011;53.380;10.034;2023-03-01T10:06:04;14.98;;;5.70;;
27576;SDS011;15011;53.380;10.034;2023-03-01T10:21:43;11.88;;;6.47;;
27576;SDS011;15011;53.380;10.034;2023-03-01T10:26:54;12.13;;;7.10;;
27576;SDS011;15011;53.380;10.034;2023-03-01T10:31:56;16.77;;;6.95;;
27576;SDS011;15011;53.380;10.034;2023-03-01T10:36:58;11.48;;;6.53;;
27576;SDS011;15011;53.380;10.034;2023-03-01T10:42:19;15.55;;;7.35;;
27576;SDS011;15011;53.380;10.034;2023-03-01T10:47:31;14.93;;;7.63;;
27576;SDS011;15011;53.380;10.034;2023-03-01T10:52:40;15.45;;;8.20;;
27576;SDS011;15011;53.380;10.034;2023-03-01T10:57:41;12.48;;;7.78;;
27576;SDS011;15011;53.380;10.034;2023-03-01T11:02:42;15.63;;;8.10;;
27576;SDS011;15011;53.380;10.034;2023-03-01T11:07:49;17.20;;;8.57;;
27576;SDS011;15011;53.380;10.034;2023-03-01T11:12:51;16.08;;;7.43;;
27576;SDS011;15011;53.380;10.034;2023-03-01T11:17:52;15.55;;;9.60;;
27576;SDS011;15011;53.380;10.034;2023-03-01T11:27:57;18.10;;;8.73;;
27576;SDS011;15011;53.380;10.034;2023-03-01T11:33:05;17.60;;;8.85;;
27576;SDS011;15011;53.380;10.034;2023-03-01T11:38:24;18.58;;;8.88;;
27576;SDS011;15011;53.380;10.034;2023-03-01T12:15:29;15.55;;;10.52;;
27576;SDS011;15011;53.380;10.034;2023-03-01T12:25:41;16.02;;;10.30;;
27576;SDS011;15011;53.380;10.034;2023-03-01T12:57:31;13.13;;;9.10;;
27576;SDS011;15011;53.380;10.034;2023-03-01T13:02:45;15.85;;;9.25;;
27576;SDS011;15011;53.380;10.034;2023-03-01T13:33:54;15.65;;;8.60;;
27576;SDS011;15011;53.380;10.034;2023-03-01T13:50:22;10.43;;;7.07;;
27576;SDS011;15011;53.380;10.034;2023-03-01T13:54:57;10.35;;;7.75;;
27576;SDS011;15011;53.380;10.034;2023-03-01T13:59:58;12.52;;;7.50;;
27576;SDS011;15011;53.380;10.034;2023-03-01T14:04:59;11.70;;;8.50;;
27576;SDS011;15011;53.380;10.034;2023-03-01T14:10:01;10.93;;;7.68;;
27576;SDS011;15011;53.380;10.034;2023-03-01T14:20:27;11.30;;;8.35;;
27576;SDS011;15011;53.380;10.034;2023-03-01T14:25:36;14.13;;;8.80;;
27576;SDS011;15011;53.380;10.034;2023-03-01T14:30:43;12.40;;;7.90;;
27576;SDS011;15011;53.380;10.034;2023-03-01T14:35:51;12.65;;;8.07;;
27576;SDS011;15011;53.380;10.034;2023-03-01T14:40:54;11.90;;;7.22;;
27576;SDS011;15011;53.380;10.034;2023-03-01T14:45:57;11.77;;;7.47;;
27576;SDS011;15011;53.380;10.034;2023-03-01T14:50:58;11.85;;;7.78;;
27576;SDS011;15011;53.380;10.034;2023-03-01T14:56:00;10.40;;;7.05;;
27576;SDS011;15011;53.380;10.034;2023-03-01T15:01:04;12.15;;;9.07;;
27576;SDS011;15011;53.380;10.034;2023-03-01T15:06:05;11.20;;;6.85;;
27576;SDS011;15011;53.380;10.034;2023-03-01T15:11:20;9.02;;;7.07;;
27576;SDS011;15011;53.380;10.034;2023-03-01T15:16:23;9.57;;;6.80;;
27576;SDS011;15011;53.380;10.034;2023-03-01T15:21:27;11.43;;;7.13;;
27576;SDS011;15011;53.380;10.034;2023-03-01T15:26:32;11.23;;;6.80;;
27576;SDS011;15011;53.380;10.034;2023-03-01T15:31:38;13.60;;;7.32;;
27576;SDS011;15011;53.380;10.034;2023-03-01T15:36:44;12.55;;;7.05;;
27576;SDS011;15011;53.380;10.034;2023-03-01T15:41:48;16.20;;;7.63;;
27576;SDS011;15011;53.380;10.034;2023-03-01T15:46:49;13.07;;;7.72;;
27576;SDS011;15011;53.380;10.034;2023-03-01T15:51:49;12.80;;;7.90;;
27576;SDS011;15011;53.380;10.034;2023-03-01T15:56:50;10.63;;;6.43;;
27576;SDS011;15011;53.380;10.034;2023-03-01T16:01:50;9.77;;;6.60;;
27576;SDS011;15011;53.380;10.034;2023-03-01T16:06:51;11.75;;;6.38;;
27576;SDS011;15011;53.380;10.034;2023-03-01T16:11:56;11.20;;;5.90;;
27576;SDS011;15011;53.380;10.034;2023-03-01T16:16:56;11.65;;;6.43;;
27576;SDS011;15011;53.380;10.034;2023-03-01T16:21:56;11.70;;;6.05;;
27576;SDS011;15011;53.380;10.034;2023-03-01T16:26:58;13.18;;;6.18;;
27576;SDS011;15011;53.380;10.034;2023-03-01T16:32:01;9.43;;;6.28;;
27576;SDS011;15011;53.380;10.034;2023-03-01T16:37:02;10.77;;;5.72;;
27576;SDS011;15011;53.380;10.034;2023-03-01T16:42:02;10.40;;;5.88;;
27576;SDS011;15011;53.380;10.034;2023-03-01T16:47:03;11.15;;;5.68;;
27576;SDS011;15011;53.380;10.034;2023-03-01T16:52:03;31.85;;;16.67;;
27576;SDS011;15011;53.380;10.034;2023-03-01T16:57:03;11.90;;;7.03;;
27576;SDS011;15011;53.380;10.034;2023-03-01T17:02:04;11.18;;;6.28;;
27576;SDS011;15011;53.380;10.034;2023-03-01T17:07:10;12.65;;;5.95;;
27576;SDS011;15011;53.380;10.034;2023-03-01T17:12:14;10.63;;;5.95;;
27576;SDS011;15011;53.380;10.034;2023-03-01T17:17:14;13.45;;;7.40;;
27576;SDS011;15011;53.380;10.034;2023-03-01T17:22:15;17.10;;;7.70;;
27576;SDS011;15011;53.380;10.034;2023-03-01T17:27:16;10.02;;;6.72;;
27576;SDS011;15011;53.380;10.034;2023-03-01T17:32:17;9.40;;;5.90;;
27576;SDS011;15011;53.380;10.034;2023-03-01T17:37:17;16.33;;;7.00;;
27576;SDS011;15011;53.380;10.034;2023-03-01T17:42:18;15.18;;;7.57;;
27576;SDS011;15011;53.380;10.034;2023-03-01T17:47:18;13.33;;;7.83;;
27576;SDS011;15011;53.380;10.034;2023-03-01T17:52:19;20.42;;;11.07;;
27576;SDS011;15011;53.380;10.034;2023-03-01T17:57:22;16.05;;;7.50;;
27576;SDS011;15011;53.380;10.034;2023-03-01T18:02:23;12.35;;;6.57;;
27576;SDS011;15011;53.380;10.034;2023-03-01T18:07:25;10.13;;;6.97;;
27576;SDS011;15011;53.380;10.034;2023-03-01T18:12:26;11.83;;;6.97;;
27576;SDS011;15011;53.380;10.034;2023-03-01T18:17:26;11.25;;;7.45;;
27576;SDS011;15011;53.380;10.034;2023-03-01T18:22:27;13.20;;;8.25;;
27576;SDS011;15011;53.380;10.034;2023-03-01T18:27:27;14.02;;;7.55;;
27576;SDS011;15011;53.380;10.034;2023-03-01T18:32:27;9.18;;;6.28;;
27576;SDS011;15011;53.380;10.034;2023-03-01T18:37:28;13.38;;;7.15;;
27576;SDS011;15011;53.380;10.034;2023-03-01T18:42:28;11.48;;;7.13;;
27576;SDS011;15011;53.380;10.034;2023-03-01T18:47:29;10.55;;;7.50;;
27576;SDS011;15011;53.380;10.034;2023-03-01T18:52:29;13.68;;;7.65;;
27576;SDS011;15011;53.380;10.034;2023-03-01T18:57:30;12.35;;;6.82;;
27576;SDS011;15011;53.380;10.034;2023-03-01T19:02:30;10.80;;;7.40;;
27576;SDS011;15011;53.380;10.034;2023-03-01T19:07:31;20.35;;;10.82;;
27576;SDS011;15011;53.380;10.034;2023-03-01T19:12:33;13.02;;;8.27;;
27576;SDS011;15011;53.380;10.034;2023-03-01T19:22:34;14.07;;;8.27;;
27576;SDS011;15011;53.380;10.034;2023-03-01T19:27:35;15.15;;;9.70;;
27576;SDS011;15011;53.380;10.034;2023-03-01T19:32:35;19.23;;;12.10;;
27576;SDS011;15011;53.380;10.034;2023-03-01T19:37:36;22.33;;;12.82;;
27576;SDS011;15011;53.380;10.034;2023-03-01T19:42:36;24.20;;;13.35;;
27576;SDS011;15011;53.380;10.034;2023-03-01T19:47:37;22.35;;;12.60;;
27576;SDS011;15011;53.380;10.034;2023-03-01T19:52:37;21.38;;;13.57;;
27576;SDS011;15011;53.380;10.034;2023-03-01T19:57:38;22.15;;;13.73;;
27576;SDS011;15011;53.380;10.034;2023-03-01T20:02:38;25.65;;;13.85;;
27576;SDS011;15011;53.380;10.034;2023-03-01T20:07:38;27.67;;;16.10;;
27576;SDS011;15011;53.380;10.034;2023-03-01T20:12:39;33.00;;;17.40;;
27576;SDS011;15011;53.380;10.034;2023-03-01T20:17:39;31.92;;;18.15;;
27576;SDS011;15011;53.380;10.034;2023-03-01T20:22:40;32.88;;;18.33;;
27576;SDS011;15011;53.380;10.034;2023-03-01T20:27:40;32.42;;;18.30;;
27576;SDS011;15011;53.380;10.034;2023-03-01T20:32:41;42.97;;;25.42;;
27576;SDS011;15011;53.380;10.034;2023-03-01T20:37:41;45.40;;;26.58;;
27576;SDS011;15011;53.380;10.034;2023-03-01T20:42:42;51.13;;;26.40;;
27576;SDS011;15011;53.380;10.034;2023-03-01T20:47:42;121.28;;;29.35;;
27576;SDS011;15011;53.380;10.034;2023-03-01T20:52:43;54.83;;;28.17;;
27576;SDS011;15011;53.380;10.034;2023-03-01T20:57:43;57.97;;;28.08;;
27576;SDS011;15011;53.380;10.034;2023-03-01T21:02:44;76.10;;;29.48;;
27576;SDS011;15011;53.380;10.034;2023-03-01T21:07:44;61.33;;;29.05;;
27576;SDS011;15011;53.380;10.034;2023-03-01T21:12:46;66.20;;;30.40;;
27576;SDS011;15011;53.380;10.034;2023-03-01T21:17:46;61.45;;;28.23;;
27576;SDS011;15011;53.380;10.034;2023-03-01T21:22:47;67.45;;;28.77;;
27576;SDS011;15011;53.380;10.034;2023-03-01T21:27:47;85.78;;;29.90;;
27576;SDS011;15011;53.380;10.034;2023-03-01T21:32:48;60.05;;;28.98;;
27576;SDS011;15011;53.380;10.034;2023-03-01T21:37:48;65.30;;;29.85;;
27576;SDS011;15011;53.380;10.034;2023-03-01T21:42:48;147.40;;;37.20;;
27576;SDS011;15011;53.380;10.034;2023-03-01T21:47:49;93.10;;;31.90;;
27576;SDS011;15011;53.380;10.034;2023-03-01T21:52:50;67.07;;;30.35;;
27576;SDS011;15011;53.380;10.034;2023-03-01T21:57:50;51.40;;;26.65;;
27576;SDS011;15011;53.380;10.034;2023-03-01T22:02:50;63.50;;;30.63;;
27576;SDS011;15011;53.380;10.034;2023-03-01T22:07:55;61.58;;;27.50;;
27576;SDS011;15011;53.380;10.034;2023-03-01T22:12:56;73.90;;;28.80;;
27576;SDS011;15011;53.380;10.034;2023-03-01T22:17:58;71.23;;;26.53;;
27576;SDS011;15011;53.380;10.034;2023-03-01T22:22:58;73.97;;;27.52;;
27576;SDS011;15011;53.380;10.034;2023-03-01T22:27:59;61.15;;;27.75;;
27576;SDS011;15011;53.380;10.034;2023-03-01T22:32:59;58.30;;;26.05;;
27576;SDS011;15011;53.380;10.034;2023-03-01T22:37:59;60.03;;;26.40;;
27576;SDS011;15011;53.380;10.034;2023-03-01T22:43:00;82.43;;;30.38;;
27576;SDS011;15011;53.380;10.034;2023-03-01T22:48:00;80.22;;;29.02;;
27576;SDS011;15011;53.380;10.034;2023-03-01T22:53:01;191.90;;;35.55;;
27576;SDS011;15011;53.380;10.034;2023-03-01T22:58:01;68.95;;;27.50;;
27576;SDS011;15011;53.380;10.034;2023-03-01T23:03:02;77.57;;;27.60;;
27576;SDS011;15011;53.380;10.034;2023-03-01T23:08:02;61.50;;;25.17;;
27576;SDS011;15011;53.380;10.034;2023-03-01T23:13:03;67.22;;;26.63;;
27576;SDS011;15011;53.380;10.034;2023-03-01T23:18:03;60.45;;;26.23;;
27576;SDS011;15011;53.380;10.034;2023-03-01T23:23:04;66.07;;;26.17;;
27576;SDS011;15011;53.380;10.034;2023-03-01T23:28:04;90.85;;;29.00;;
27576;SDS011;15011;53.380;10.034;2023-03-01T23:33:05;61.00;;;27.77;;
27576;SDS011;15011;53.380;10.034;2023-03-01T23:38:05;52.30;;;24.25;;
27576;SDS011;15011;53.380;10.034;2023-03-01T23:43:06;52.42;;;23.33;;
27576;SDS011;15011;53.380;10.034;2023-03-01T23:48:07;74.93;;;23.93;;
27576;SDS011;15011;53.380;10.034;2023-03-01T23:53:12;90.53;;;26.35;;
27576;SDS011;15011;53.380;10.034;2023-03-01T23:58:13;61.50;;;23.90;;
